createdAt,value
2023-04-26T03:01:15.235Z,6.29
2023-04-26T03:03:44.446Z,6.22
2023-04-26T03:06:13.541Z,6.07
2023-04-26T03:08:42.500Z,5.99
2023-04-26T03:11:12.155Z,5.93
2023-04-26T03:13:41.030Z,5.89
2023-04-26T03:16:11.417Z,5.81
2023-04-26T03:18:40.490Z,5.77
2023-04-26T03:21:09.776Z,5.80
2023-04-26T03:23:39.171Z,5.74
2023-04-26T03:26:08.236Z,5.67
2023-04-26T03:28:36.565Z,5.63
2023-04-26T03:31:05.585Z,5.63
2023-04-26T03:33:34.158Z,5.62
2023-04-26T03:36:04.042Z,5.61
2023-04-26T03:38:33.601Z,5.63
2023-04-26T03:41:02.549Z,5.63
2023-04-26T03:43:33.530Z,5.62
2023-04-26T03:46:02.898Z,5.59
2023-04-26T03:48:31.303Z,5.60
2023-04-26T03:50:59.383Z,5.65
2023-04-26T03:53:30.296Z,5.65
2023-04-26T03:55:58.698Z,5.66
2023-04-26T03:58:27.768Z,5.70
2023-04-26T04:00:59.406Z,5.75
2023-04-26T04:03:30.734Z,5.84
2023-04-26T04:05:59.569Z,5.89
2023-04-26T04:08:28.325Z,5.95
2023-04-26T04:10:57.418Z,6.03
2023-04-26T04:13:27.206Z,6.07
2023-04-26T04:15:56.103Z,6.16
2023-04-26T04:18:25.494Z,6.38
2023-04-26T04:20:55.127Z,6.47
2023-04-26T04:23:24.495Z,6.49
2023-04-26T04:25:53.790Z,6.49
2023-04-26T04:28:24.068Z,6.53
2023-04-26T04:30:52.727Z,6.67
2023-04-26T04:33:21.085Z,6.79
2023-04-26T04:35:49.708Z,7.08
2023-04-26T04:38:18.566Z,7.49
2023-04-26T04:40:51.278Z,7.91
2023-04-26T04:43:22.030Z,8.35
2023-04-26T04:45:52.572Z,8.73
2023-04-26T04:48:21.852Z,9.22
2023-04-26T04:50:51.480Z,9.56
2023-04-26T04:53:20.642Z,9.76
2023-04-26T04:55:49.908Z,9.86
2023-04-26T04:58:19.525Z,9.92
2023-04-26T05:00:48.812Z,10.02
2023-04-26T05:03:23.553Z,10.17
2023-04-26T05:05:53.376Z,10.36
2023-04-26T05:08:22.119Z,10.58
2023-04-26T05:10:51.914Z,10.75
2023-04-26T05:13:20.742Z,10.87
2023-04-26T05:15:49.446Z,11.00
2023-04-26T05:18:18.305Z,11.21
2023-04-26T05:20:46.769Z,11.25
2023-04-26T05:23:15.155Z,11.36
2023-04-26T05:25:44.275Z,11.60
2023-04-26T05:28:35.569Z,12.01
2023-04-26T05:31:19.531Z,12.54
2023-04-26T05:34:01.183Z,13.24
2023-04-26T05:36:39.564Z,13.93
2023-04-26T05:39:09.701Z,14.42
2023-04-26T05:41:38.284Z,14.90
2023-04-26T05:44:07.642Z,14.82
2023-04-26T05:46:36.560Z,14.42
2023-04-26T05:49:05.581Z,14.00
2023-04-26T05:51:35.489Z,13.72
2023-04-26T05:54:04.149Z,14.57
2023-04-26T05:56:32.450Z,15.83
2023-04-26T05:59:00.839Z,16.97
2023-04-26T06:01:29.839Z,18.08
2023-04-26T06:04:00.502Z,18.87
2023-04-26T06:06:34.383Z,18.44
2023-04-26T06:09:02.763Z,17.33
2023-04-26T06:11:32.019Z,16.33
2023-04-26T06:14:01.799Z,15.45
2023-04-26T06:16:32.168Z,14.62
2023-04-26T06:19:02.100Z,13.89
2023-04-26T06:21:31.793Z,13.30
2023-04-26T06:24:00.864Z,12.85
2023-04-26T06:26:32.113Z,12.54
2023-04-26T06:29:01.034Z,12.28
2023-04-26T06:31:30.161Z,12.09
2023-04-26T06:34:03.448Z,11.94
2023-04-26T06:36:33.959Z,11.83
2023-04-26T06:39:02.507Z,11.73
2023-04-26T06:41:31.824Z,11.62
2023-04-26T06:44:01.090Z,11.52
2023-04-26T06:46:32.939Z,11.44
2023-04-26T06:49:02.917Z,11.43
2023-04-26T06:51:32.029Z,11.40
2023-04-26T06:54:01.668Z,11.46
2023-04-26T06:56:30.725Z,11.42
2023-04-26T06:59:03.987Z,11.40
2023-04-26T07:01:36.131Z,11.33
2023-04-26T07:04:10.872Z,11.36
2023-04-26T07:06:40.367Z,11.42
2023-04-26T07:09:08.982Z,11.46
2023-04-26T07:11:37.635Z,11.41
2023-04-26T07:14:06.133Z,11.43
2023-04-26T07:16:35.122Z,11.50
2023-04-26T07:19:03.668Z,11.60
2023-04-26T07:21:33.565Z,11.78
2023-04-26T07:24:02.947Z,11.90
2023-04-26T07:26:32.055Z,11.89
2023-04-26T07:29:01.679Z,11.96
2023-04-26T07:31:31.580Z,12.09
2023-04-26T07:34:00.259Z,12.06
2023-04-26T07:36:29.273Z,11.87
2023-04-26T07:38:57.848Z,11.74
2023-04-26T07:41:27.043Z,11.67
2023-04-26T07:43:56.054Z,11.68
2023-04-26T07:46:24.475Z,11.68
2023-04-26T07:48:54.040Z,11.58
2023-04-26T07:51:22.638Z,11.51
2023-04-26T07:53:51.464Z,11.56
2023-04-26T07:56:21.308Z,11.66
2023-04-26T07:58:49.925Z,11.63
2023-04-26T08:01:18.462Z,11.56
2023-04-26T08:03:47.960Z,11.53
2023-04-26T08:06:17.513Z,11.47
2023-04-26T08:08:49.453Z,11.43
2023-04-26T08:11:18.563Z,11.37
2023-04-26T08:13:47.808Z,11.26
2023-04-26T08:16:16.156Z,11.08
2023-04-26T08:18:46.829Z,10.89
2023-04-26T08:21:15.313Z,10.79
2023-04-26T08:23:44.155Z,10.67
2023-04-26T08:26:13.651Z,10.54
2023-04-26T08:28:42.431Z,10.49
2023-04-26T08:31:10.787Z,10.59
2023-04-26T08:33:39.887Z,10.69
2023-04-26T08:36:09.540Z,10.71
2023-04-26T08:38:38.564Z,10.83
2023-04-26T08:41:08.617Z,11.05
2023-04-26T08:43:38.555Z,11.33
2023-04-26T08:46:09.024Z,11.60
2023-04-26T08:48:37.665Z,11.69
2023-04-26T08:51:08.094Z,11.60
2023-04-26T08:53:38.148Z,11.48
2023-04-26T08:56:08.675Z,11.32
2023-04-26T08:58:38.122Z,11.17
2023-04-26T09:01:07.401Z,11.12
2023-04-26T09:03:35.933Z,11.05
2023-04-26T09:06:06.793Z,10.85
2023-04-26T09:08:36.828Z,10.70
2023-04-26T09:11:05.008Z,10.60
2023-04-26T09:13:33.275Z,10.47
2023-04-26T09:16:04.136Z,10.39
2023-04-26T09:18:34.261Z,10.33
2023-04-26T09:21:07.279Z,10.34
2023-04-26T09:23:35.996Z,10.39
2023-04-26T09:26:21.382Z,10.44
2023-04-26T09:28:51.311Z,10.43
2023-04-26T09:31:39.388Z,10.49
2023-04-26T09:34:09.010Z,10.63
2023-04-26T09:37:07.139Z,10.84
2023-04-26T09:39:38.022Z,11.04
2023-04-26T09:42:08.454Z,11.00
2023-04-26T09:44:37.150Z,10.91
2023-04-26T09:47:10.491Z,10.81
2023-04-26T09:49:50.734Z,10.71
2023-04-26T09:52:19.399Z,10.62
2023-04-26T09:54:49.101Z,10.49
2023-04-26T09:57:18.394Z,10.37
2023-04-26T09:59:47.837Z,10.23
2023-04-26T10:02:16.772Z,10.14
2023-04-26T10:04:47.237Z,10.11
2023-04-26T10:07:17.188Z,10.21
2023-04-26T10:09:47.429Z,10.47
2023-04-26T10:12:17.240Z,10.79
2023-04-26T10:14:47.232Z,11.04
2023-04-26T10:17:16.906Z,11.29
2023-04-26T10:19:48.418Z,11.45
2023-04-26T10:22:22.401Z,11.56
2023-04-26T10:24:52.273Z,11.69
2023-04-26T10:27:40.226Z,11.77
2023-04-26T10:30:09.746Z,11.89
2023-04-26T10:32:53.880Z,11.97
2023-04-26T10:35:23.211Z,11.99
2023-04-26T10:38:17.972Z,12.04
2023-04-26T10:40:47.167Z,12.12
2023-04-26T10:43:20.149Z,12.03
2023-04-26T10:45:50.200Z,11.86
2023-04-26T10:48:27.706Z,11.75
2023-04-26T10:51:02.685Z,11.70
2023-04-26T10:53:46.838Z,11.72
2023-04-26T10:56:24.171Z,11.79
2023-04-26T10:59:22.593Z,11.94
2023-04-26T11:02:03.469Z,11.95
2023-04-26T11:04:51.338Z,11.83
2023-04-26T11:07:39.479Z,11.62
2023-04-26T11:10:11.000Z,11.37
2023-04-26T11:12:42.785Z,11.22
2023-04-26T11:15:12.964Z,11.22
2023-04-26T11:17:42.061Z,11.27
2023-04-26T11:20:16.765Z,11.30
2023-04-26T11:22:46.023Z,11.27
2023-04-26T11:25:15.333Z,11.12
2023-04-26T11:27:44.243Z,10.95
2023-04-26T11:30:13.330Z,10.76
2023-04-26T11:32:42.397Z,10.56
2023-04-26T11:35:11.162Z,10.35
2023-04-26T11:37:40.500Z,10.18
2023-04-26T11:40:12.262Z,10.11
2023-04-26T11:42:42.594Z,10.05
2023-04-26T11:45:12.607Z,10.03
2023-04-26T11:47:42.199Z,10.08
2023-04-26T11:50:11.065Z,10.16
2023-04-26T11:52:40.575Z,10.21
2023-04-26T11:55:11.206Z,10.29
2023-04-26T11:57:40.390Z,10.44
2023-04-26T12:00:13.073Z,10.63
2023-04-26T12:02:46.720Z,10.78
2023-04-26T12:05:42.262Z,10.92
2023-04-26T12:08:12.207Z,11.09
2023-04-26T12:10:41.032Z,11.16
2023-04-26T12:13:14.721Z,11.22
2023-04-26T12:15:44.193Z,11.29
2023-04-26T12:18:13.774Z,11.32
2023-04-26T12:20:43.492Z,11.34
2023-04-26T12:23:15.944Z,11.43
2023-04-26T12:25:56.291Z,11.52
2023-04-26T12:28:25.652Z,11.64
2023-04-26T12:30:54.863Z,11.86
2023-04-26T12:33:26.043Z,11.99
2023-04-26T12:35:55.564Z,12.08
2023-04-26T12:38:25.164Z,12.11
2023-04-26T12:40:53.942Z,12.13
2023-04-26T12:43:24.878Z,12.19
2023-04-26T12:45:56.947Z,12.25
2023-04-26T12:48:26.621Z,12.26
2023-04-26T12:50:55.552Z,12.27
2023-04-26T12:53:24.420Z,12.29
2023-04-26T12:55:54.303Z,12.25
2023-04-26T12:58:23.361Z,12.26
2023-04-26T13:00:52.379Z,12.31
2023-04-26T13:03:21.321Z,12.31
2023-04-26T13:05:50.443Z,12.31
2023-04-26T13:08:19.437Z,12.35
2023-04-26T13:10:48.488Z,12.38
2023-04-26T13:13:18.348Z,12.37
2023-04-26T13:15:50.611Z,12.19
2023-04-26T13:18:19.675Z,11.86
2023-04-26T13:20:48.669Z,11.60
2023-04-26T13:23:18.407Z,11.34
2023-04-26T13:25:47.379Z,11.09
2023-04-26T13:28:16.517Z,10.96
2023-04-26T13:30:45.924Z,10.86
2023-04-26T13:33:15.140Z,10.72
2023-04-26T13:35:43.745Z,10.57
2023-04-26T13:38:13.248Z,10.49
2023-04-26T13:40:42.666Z,10.44
2023-04-26T13:43:11.563Z,10.40
2023-04-26T13:45:40.722Z,10.37
2023-04-26T13:48:09.960Z,10.35
2023-04-26T13:50:38.336Z,10.33
2023-04-26T13:53:06.865Z,10.33
2023-04-26T13:55:35.899Z,10.35
2023-04-26T13:58:04.991Z,10.39
2023-04-26T14:00:34.702Z,10.41
2023-04-26T14:03:04.743Z,10.44
2023-04-26T14:05:33.297Z,10.51
2023-04-26T14:08:03.194Z,10.55
2023-04-26T14:10:32.903Z,10.61
2023-04-26T14:13:01.482Z,10.73
2023-04-26T14:15:30.043Z,10.82
2023-04-26T14:17:59.246Z,10.91
2023-04-26T14:20:27.562Z,10.94
2023-04-26T14:22:56.346Z,10.97
2023-04-26T14:25:24.630Z,10.96
2023-04-26T14:27:54.945Z,10.90
2023-04-26T14:30:25.210Z,10.81
2023-04-26T14:32:54.141Z,10.76
2023-04-26T14:35:22.496Z,10.71
2023-04-26T14:37:51.567Z,10.72
2023-04-26T14:40:20.512Z,10.70
2023-04-26T14:42:49.031Z,10.70
2023-04-26T14:45:17.529Z,10.66
2023-04-26T14:47:46.683Z,10.65
2023-04-26T14:50:15.617Z,10.66
2023-04-26T14:52:44.903Z,10.67
2023-04-26T14:55:19.612Z,10.73
2023-04-26T14:57:48.318Z,10.79
2023-04-26T15:00:17.933Z,10.86
2023-04-26T15:02:47.716Z,10.88
2023-04-26T15:05:19.974Z,10.94
2023-04-26T15:07:51.555Z,11.02
2023-04-26T15:10:20.649Z,11.07
2023-04-26T15:12:49.160Z,11.15
2023-04-26T15:15:18.644Z,11.17
2023-04-26T15:17:47.619Z,11.14
2023-04-26T15:20:16.250Z,11.04
2023-04-26T15:22:46.208Z,10.96
2023-04-26T15:25:14.832Z,10.91
2023-04-26T15:27:43.492Z,10.84
2023-04-26T15:30:13.201Z,10.80
2023-04-26T15:32:41.696Z,10.78
2023-04-26T15:35:13.638Z,10.81
2023-04-26T15:37:42.654Z,10.83
2023-04-26T15:40:12.606Z,10.86
2023-04-26T15:42:41.716Z,10.88
2023-04-26T15:45:11.031Z,10.86
2023-04-26T15:47:40.257Z,10.84
2023-04-26T15:50:10.653Z,10.77
2023-04-26T15:52:41.236Z,10.71
2023-04-26T15:55:10.673Z,10.63
2023-04-26T15:57:41.827Z,10.57
2023-04-26T16:00:13.833Z,10.46
2023-04-26T16:02:46.336Z,10.41
2023-04-26T16:05:15.521Z,10.44
2023-04-26T16:07:44.626Z,10.45
2023-04-26T16:10:12.885Z,10.43
2023-04-26T16:12:42.673Z,10.46
2023-04-26T16:15:11.881Z,10.46
2023-04-26T16:17:40.621Z,10.42
2023-04-26T16:20:10.779Z,10.38
2023-04-26T16:22:39.432Z,10.36
2023-04-26T16:25:08.844Z,10.34
2023-04-26T16:27:37.919Z,10.33
2023-04-26T16:30:06.684Z,10.34
2023-04-26T16:32:35.186Z,10.34
2023-04-26T16:35:03.441Z,10.28
2023-04-26T16:37:31.691Z,10.23
2023-04-26T16:40:00.914Z,10.18
2023-04-26T16:42:30.581Z,10.11
2023-04-26T16:44:59.883Z,10.02
2023-04-26T16:47:29.045Z,9.96
2023-04-26T16:49:57.974Z,9.92
2023-04-26T16:52:26.887Z,9.91
2023-04-26T16:54:56.192Z,9.90
2023-04-26T16:57:25.183Z,9.89
2023-04-26T16:59:53.460Z,9.82
2023-04-26T17:02:21.890Z,9.73
2023-04-26T17:04:51.319Z,9.66
2023-04-26T17:07:19.897Z,9.61
2023-04-26T17:09:48.574Z,9.55
2023-04-26T17:12:16.890Z,9.48
2023-04-26T17:14:45.262Z,9.43
2023-04-26T17:17:14.372Z,9.42
2023-04-26T17:19:42.994Z,9.43
2023-04-26T17:22:11.803Z,9.40
2023-04-26T17:24:40.345Z,9.34
2023-04-26T17:27:09.042Z,9.30
2023-04-26T17:29:37.389Z,9.25
2023-04-26T17:32:06.029Z,9.18
2023-04-26T17:34:34.398Z,9.12
2023-04-26T17:37:03.417Z,9.07
2023-04-26T17:39:31.920Z,9.09
2023-04-26T17:42:00.376Z,9.08
2023-04-26T17:44:28.911Z,9.08
2023-04-26T17:46:57.581Z,9.07
2023-04-26T17:49:26.750Z,9.04
2023-04-26T17:51:55.093Z,9.03
2023-04-26T17:54:24.037Z,9.01
2023-04-26T17:56:53.018Z,8.94
2023-04-26T17:59:22.422Z,8.83
2023-04-26T18:01:51.368Z,8.76
2023-04-26T18:04:20.283Z,8.70
2023-04-26T18:06:49.705Z,8.59
2023-04-26T18:09:18.609Z,8.53
2023-04-26T18:11:48.629Z,8.48
2023-04-26T18:14:17.508Z,8.36
2023-04-26T18:16:47.015Z,8.29
2023-04-26T18:19:16.412Z,8.27
2023-04-26T18:21:45.139Z,8.25
2023-04-26T18:24:13.373Z,8.21
2023-04-26T18:26:41.917Z,8.15
2023-04-26T18:29:11.069Z,8.11
2023-04-26T18:31:40.193Z,8.05
2023-04-26T18:34:11.013Z,7.99
2023-04-26T18:36:40.086Z,7.90
2023-04-26T18:39:09.003Z,7.85
2023-04-26T18:41:38.108Z,7.80
2023-04-26T18:44:13.257Z,7.76
2023-04-26T18:46:43.313Z,7.69
2023-04-26T18:49:12.045Z,7.63
2023-04-26T18:51:40.956Z,7.59
2023-04-26T18:54:10.040Z,7.54
2023-04-26T18:56:38.600Z,7.49
2023-04-26T18:59:07.793Z,7.47
2023-04-26T19:01:36.868Z,7.45
2023-04-26T19:04:06.401Z,7.45
2023-04-26T19:06:35.032Z,7.45
2023-04-26T19:09:06.985Z,7.38
2023-04-26T19:11:37.984Z,7.33
2023-04-26T19:14:06.437Z,7.30
2023-04-26T19:16:35.683Z,7.29
2023-04-26T19:19:04.725Z,7.26
2023-04-26T19:21:33.446Z,7.24
2023-04-26T19:24:01.768Z,7.22
2023-04-26T19:26:30.869Z,7.21
2023-04-26T19:28:59.336Z,7.20
2023-04-26T19:31:28.069Z,7.16
2023-04-26T19:33:56.578Z,7.12
2023-04-26T19:36:25.718Z,7.09
2023-04-26T19:38:54.287Z,7.11
2023-04-26T19:41:24.073Z,7.10
2023-04-26T19:43:52.728Z,7.01
2023-04-26T19:46:20.878Z,6.95
2023-04-26T19:48:49.124Z,6.87
2023-04-26T19:51:18.062Z,6.75
2023-04-26T19:53:46.173Z,6.66
2023-04-26T19:56:14.584Z,6.56
2023-04-26T19:58:43.482Z,6.48
2023-04-26T20:01:11.749Z,6.46
2023-04-26T20:03:41.607Z,6.44
2023-04-26T20:06:14.062Z,6.39
2023-04-26T20:08:43.002Z,6.31
2023-04-26T20:11:15.480Z,6.27
2023-04-26T20:13:44.828Z,6.21
2023-04-26T20:16:14.649Z,6.13
2023-04-26T20:18:43.507Z,6.06
2023-04-26T20:21:11.856Z,5.95
2023-04-26T20:23:40.265Z,5.87
2023-04-26T20:26:09.165Z,5.81
2023-04-26T20:28:39.992Z,5.73
2023-04-26T20:31:10.466Z,5.65
2023-04-26T20:33:39.975Z,5.57
2023-04-26T20:36:08.981Z,5.50
2023-04-26T20:38:37.360Z,5.35
2023-04-26T20:41:05.784Z,5.24
2023-04-26T20:43:34.060Z,5.18
2023-04-26T20:46:02.755Z,5.14
2023-04-26T20:48:32.036Z,5.13
2023-04-26T20:51:02.359Z,5.11
2023-04-26T20:53:31.435Z,5.06
2023-04-26T20:55:59.773Z,5.04
2023-04-26T20:58:29.933Z,5.08
2023-04-26T21:00:59.691Z,5.04
2023-04-26T21:03:28.166Z,5.02
2023-04-26T21:05:56.751Z,4.98
2023-04-26T21:08:26.101Z,4.88
2023-04-26T21:10:55.278Z,4.83
2023-04-26T21:13:23.988Z,4.83
2023-04-26T21:15:53.068Z,4.83
2023-04-26T21:18:22.628Z,4.80
2023-04-26T21:20:51.748Z,4.77
2023-04-26T21:23:21.355Z,4.76
2023-04-26T21:25:50.078Z,4.74
2023-04-26T21:28:19.701Z,4.73
2023-04-26T21:30:48.961Z,4.69
2023-04-26T21:33:17.714Z,4.60
2023-04-26T21:35:46.300Z,4.57
2023-04-26T21:38:15.855Z,4.50
2023-04-26T21:40:44.711Z,4.46
2023-04-26T21:43:16.148Z,4.47
2023-04-26T21:45:45.165Z,4.49
2023-04-26T21:48:14.010Z,4.52
2023-04-26T21:50:42.914Z,4.52
2023-04-26T21:53:11.103Z,4.53
2023-04-26T21:55:40.216Z,4.50
2023-04-26T21:58:08.893Z,4.46
2023-04-26T22:00:37.831Z,4.46
2023-04-26T22:03:06.377Z,4.46
2023-04-26T22:05:35.551Z,4.43
2023-04-26T22:08:04.543Z,4.35
2023-04-26T22:10:33.355Z,4.30
2023-04-26T22:13:04.581Z,4.27
2023-04-26T22:15:33.088Z,4.26
2023-04-26T22:18:02.208Z,4.27
2023-04-26T22:20:31.226Z,4.20
2023-04-26T22:23:00.409Z,4.13
2023-04-26T22:25:29.430Z,4.07
2023-04-26T22:27:58.456Z,4.02
2023-04-26T22:30:27.834Z,3.95
2023-04-26T22:32:58.991Z,3.91
2023-04-26T22:35:28.674Z,3.87
2023-04-26T22:37:57.767Z,3.89
2023-04-26T22:40:26.682Z,3.92
2023-04-26T22:42:55.677Z,3.94
2023-04-26T22:45:24.575Z,3.97
2023-04-26T22:47:53.514Z,3.94
2023-04-26T22:50:22.614Z,3.89
2023-04-26T22:52:51.357Z,3.88
2023-04-26T22:55:20.490Z,3.92
2023-04-26T22:57:49.486Z,3.93
2023-04-26T23:00:18.716Z,3.95
2023-04-26T23:02:47.115Z,3.94
2023-04-26T23:05:15.402Z,3.96
2023-04-26T23:07:44.257Z,3.97
2023-04-26T23:10:13.612Z,3.97
2023-04-26T23:12:42.618Z,3.89
2023-04-26T23:15:13.076Z,3.84
2023-04-26T23:17:42.264Z,3.83
2023-04-26T23:20:14.314Z,3.80
2023-04-26T23:22:43.326Z,3.79
2023-04-26T23:25:12.366Z,3.77
2023-04-26T23:27:41.406Z,3.76
2023-04-26T23:30:10.679Z,3.79
2023-04-26T23:32:39.402Z,3.79
2023-04-26T23:35:08.259Z,3.81
2023-04-26T23:37:37.608Z,3.84
2023-04-26T23:40:07.403Z,3.83
2023-04-26T23:42:37.441Z,3.80
2023-04-26T23:45:08.154Z,3.81
2023-04-26T23:47:37.240Z,3.77
2023-04-26T23:50:06.212Z,3.74
2023-04-26T23:52:35.060Z,3.73
2023-04-26T23:55:03.585Z,3.73
2023-04-26T23:57:32.787Z,3.69
